createdAt,value
2023-03-05T00:09:15.030Z,65.85
2023-03-05T00:19:39.818Z,65.69
2023-03-05T00:30:06.411Z,65.56
2023-03-05T00:40:30.762Z,65.62
2023-03-05T00:50:55.103Z,65.56
2023-03-05T01:01:20.122Z,65.39
2023-03-05T01:11:44.894Z,65.55
2023-03-05T01:22:09.774Z,65.66
2023-03-05T01:32:35.748Z,65.65
2023-03-05T01:43:22.068Z,64.92
2023-03-05T01:53:46.577Z,64.95
2023-03-05T02:04:14.586Z,64.89
2023-03-05T02:14:41.121Z,64.73
2023-03-05T02:25:15.428Z,64.45
2023-03-05T02:35:39.680Z,64.17
2023-03-05T02:46:04.653Z,64.51
2023-03-05T02:56:29.060Z,64.39
2023-03-05T03:06:54.001Z,63.96
2023-03-05T03:17:19.959Z,64.00
2023-03-05T03:27:44.995Z,63.93
2023-03-05T03:38:11.277Z,63.91
2023-03-05T03:48:36.205Z,63.75
2023-03-05T03:59:01.056Z,63.63
2023-03-05T04:09:25.314Z,63.33
2023-03-05T04:19:49.555Z,63.21
2023-03-05T04:30:14.968Z,62.94
2023-03-05T04:40:39.558Z,62.70
2023-03-05T04:51:04.410Z,62.20
2023-03-05T05:01:28.677Z,63.11
2023-03-05T05:11:53.893Z,63.46
2023-03-05T05:22:18.635Z,63.38
2023-03-05T05:32:42.917Z,62.77
2023-03-05T05:43:07.588Z,62.37
2023-03-05T05:53:31.858Z,62.22
2023-03-05T06:03:57.701Z,62.30
2023-03-05T06:14:22.507Z,63.05
2023-03-05T06:24:47.306Z,63.46
2023-03-05T06:35:11.987Z,63.57
2023-03-05T06:45:36.924Z,63.27
2023-03-05T06:56:02.388Z,63.62
2023-03-05T07:06:27.828Z,64.76
2023-03-05T07:16:52.983Z,65.13
2023-03-05T07:27:17.912Z,65.44
2023-03-05T07:37:42.729Z,66.12
2023-03-05T07:48:08.032Z,66.82
2023-03-05T07:58:32.228Z,67.18
2023-03-05T08:08:57.334Z,67.21
2023-03-05T08:19:22.723Z,67.68
2023-03-05T08:29:47.264Z,68.09
2023-03-05T08:40:14.001Z,67.55
2023-03-05T08:50:39.068Z,68.30
2023-03-05T09:01:05.145Z,68.06
2023-03-05T09:11:29.466Z,68.25
2023-03-05T09:21:56.621Z,68.39
2023-03-05T09:32:21.315Z,68.77
2023-03-05T09:43:00.889Z,68.54
2023-03-05T09:53:37.088Z,68.87
2023-03-05T10:04:11.142Z,69.31
2023-03-05T10:14:39.539Z,68.96
2023-03-05T10:25:20.294Z,68.20
2023-03-05T10:36:10.976Z,68.08
2023-03-05T10:46:38.330Z,67.42
2023-03-05T10:57:18.329Z,67.11
2023-03-05T11:07:42.554Z,66.72
2023-03-05T11:18:20.680Z,66.91
2023-03-05T11:28:59.235Z,67.00
2023-03-05T11:39:24.346Z,66.05
2023-03-05T11:49:52.464Z,66.35
2023-03-05T12:00:21.951Z,66.27
2023-03-05T12:10:46.657Z,65.61
2023-03-05T12:21:22.193Z,64.86
2023-03-05T12:31:46.576Z,64.03
2023-03-05T12:42:45.967Z,63.91
2023-03-05T12:53:13.825Z,62.09
2023-03-05T13:03:52.451Z,60.61
2023-03-05T13:14:40.376Z,59.01
2023-03-05T13:25:14.314Z,58.88
2023-03-05T13:35:45.436Z,58.58
2023-03-05T13:46:10.523Z,58.42
2023-03-05T13:56:35.361Z,58.49
2023-03-05T14:07:03.125Z,58.53
2023-03-05T14:17:41.202Z,58.26
2023-03-05T14:28:07.524Z,58.60
2023-03-05T14:38:34.212Z,58.33
2023-03-05T14:48:59.099Z,58.62
2023-03-05T14:59:23.634Z,58.13
2023-03-05T15:09:49.243Z,57.98
2023-03-05T15:20:18.368Z,58.49
2023-03-05T15:30:45.917Z,58.31
2023-03-05T15:41:10.228Z,58.64
2023-03-05T15:51:35.106Z,58.50
2023-03-05T16:01:59.743Z,58.61
2023-03-05T16:12:31.111Z,58.60
2023-03-05T16:22:55.448Z,58.66
2023-03-05T16:33:19.716Z,58.86
2023-03-05T16:43:45.359Z,59.11
2023-03-05T16:54:10.409Z,60.01
2023-03-05T17:04:35.041Z,61.22
2023-03-05T17:14:59.883Z,63.24
2023-03-05T17:25:24.854Z,64.67
2023-03-05T17:35:49.742Z,65.22
2023-03-05T17:46:15.317Z,65.92
2023-03-05T17:56:39.491Z,66.51
2023-03-05T18:07:03.956Z,66.68
2023-03-05T18:17:28.420Z,66.77
2023-03-05T18:27:53.358Z,66.55
2023-03-05T18:38:18.902Z,66.44
2023-03-05T18:48:43.826Z,66.41
2023-03-05T18:59:08.024Z,66.08
2023-03-05T19:09:48.284Z,65.88
2023-03-05T19:20:15.409Z,65.67
2023-03-05T19:30:39.597Z,65.25
2023-03-05T19:41:04.429Z,65.23
2023-03-05T19:51:28.657Z,65.09
2023-03-05T20:01:53.553Z,65.04
2023-03-05T20:12:18.530Z,64.79
2023-03-05T20:22:47.684Z,65.01
2023-03-05T20:33:12.813Z,65.19
2023-03-05T20:43:40.716Z,65.09
2023-03-05T20:54:08.226Z,64.99
2023-03-05T21:04:32.466Z,65.23
2023-03-05T21:14:56.691Z,65.14
2023-03-05T21:25:26.901Z,65.16
2023-03-05T21:35:52.445Z,64.99
2023-03-05T21:46:16.770Z,64.50
2023-03-05T21:56:40.992Z,64.92
2023-03-05T22:07:06.549Z,64.77
2023-03-05T22:17:30.981Z,65.52
2023-03-05T22:27:55.453Z,65.41
2023-03-05T22:38:19.806Z,65.30
2023-03-05T22:48:44.881Z,65.17
2023-03-05T22:59:09.080Z,65.23
2023-03-05T23:09:33.420Z,65.07
2023-03-05T23:19:57.616Z,65.10
2023-03-05T23:30:22.845Z,65.55
2023-03-05T23:40:50.004Z,66.08
2023-03-05T23:51:14.450Z,66.14
